Ionia, Kansas
Current Conditions -  °F | °C
As of 8:55 AM on Monday 22 Dec 2014 (Local Time) from KCNK Reporting Station
Haze Haze  
Wind Chill: 35°   Ceiling: 9000
Heat Index: 42°   Visibility: 6mi
Dew Point: 40°   Wind: 13mph
Humidity: 92%   Direction: 300°WNW
Pressure: 29.52"   Gusts: NA
Location:  39.6687°N, 98.0318°W
Report Text: KCNK 221455Z AUTO 30011KT 6SM BR OVC090 06/04 A2952 RMK AO2 SLP000 T00560044 50002
Loading
Personal Weather Stations






























Interactive Weather Map New forecast layout! Learn more

10-Day Weather Forecast

Advertisements
Track Severe Weather on mobile